sensor_id;sensor_type;location;lat;lon;timestamp;temperature;humidity
25945;SHT31;13742;49.306;8.636;2023-03-23T00:00:56;14.74;60.57
25945;SHT31;13742;49.306;8.636;2023-03-23T00:01:56;14.75;60.67
25945;SHT31;13742;49.306;8.636;2023-03-23T00:02:56;14.74;60.72
25945;SHT31;13742;49.306;8.636;2023-03-23T00:03:59;14.74;60.51
25945;SHT31;13742;49.306;8.636;2023-03-23T00:04:56;14.75;60.59
25945;SHT31;13742;49.306;8.636;2023-03-23T00:06:04;14.71;60.69
25945;SHT31;13742;49.306;8.636;2023-03-23T00:06:56;14.72;60.55
25945;SHT31;13742;49.306;8.636;2023-03-23T00:07:56;14.72;60.70
25945;SHT31;13742;49.306;8.636;2023-03-23T00:08:59;14.71;60.76
25945;SHT31;13742;49.306;8.636;2023-03-23T00:09:56;14.72;60.47
25945;SHT31;13742;49.306;8.636;2023-03-23T00:11:01;14.72;60.36
25945;SHT31;13742;49.306;8.636;2023-03-23T00:12:05;14.69;60.40
25945;SHT31;13742;49.306;8.636;2023-03-23T00:12:57;14.69;60.47
25945;SHT31;13742;49.306;8.636;2023-03-23T00:13:59;14.71;60.39
25945;SHT31;13742;49.306;8.636;2023-03-23T00:14:56;14.71;60.24
25945;SHT31;13742;49.306;8.636;2023-03-23T00:15:57;14.72;60.25
25945;SHT31;13742;49.306;8.636;2023-03-23T00:16:56;14.71;60.22
25945;SHT31;13742;49.306;8.636;2023-03-23T00:18:02;14.74;60.20
25945;SHT31;13742;49.306;8.636;2023-03-23T00:19:03;14.75;60.08
25945;SHT31;13742;49.306;8.636;2023-03-23T00:19:56;14.72;60.11
25945;SHT31;13742;49.306;8.636;2023-03-23T00:20:56;14.72;60.22
25945;SHT31;13742;49.306;8.636;2023-03-23T00:21:56;14.72;59.79
25945;SHT31;13742;49.306;8.636;2023-03-23T00:23:00;14.72;59.73
25945;SHT31;13742;49.306;8.636;2023-03-23T00:23:57;14.72;59.82
25945;SHT31;13742;49.306;8.636;2023-03-23T00:24:56;14.72;60.03
25945;SHT31;13742;49.306;8.636;2023-03-23T00:26:00;14.72;59.94
25945;SHT31;13742;49.306;8.636;2023-03-23T00:26:58;14.71;59.79
25945;SHT31;13742;49.306;8.636;2023-03-23T00:27:56;14.69;59.85
25945;SHT31;13742;49.306;8.636;2023-03-23T00:28:56;14.71;59.88
25945;SHT31;13742;49.306;8.636;2023-03-23T00:29:57;14.69;59.88
25945;SHT31;13742;49.306;8.636;2023-03-23T00:31:01;14.71;59.87
25945;SHT31;13742;49.306;8.636;2023-03-23T00:31:56;14.67;59.65
25945;SHT31;13742;49.306;8.636;2023-03-23T00:32:56;14.67;59.95
25945;SHT31;13742;49.306;8.636;2023-03-23T00:33:57;14.65;60.04
25945;SHT31;13742;49.306;8.636;2023-03-23T00:34:57;14.64;59.98
25945;SHT31;13742;49.306;8.636;2023-03-23T00:35:56;14.64;59.98
25945;SHT31;13742;49.306;8.636;2023-03-23T00:36:56;14.65;59.86
25945;SHT31;13742;49.306;8.636;2023-03-23T00:37:56;14.62;59.86
25945;SHT31;13742;49.306;8.636;2023-03-23T00:38:58;14.61;59.82
25945;SHT31;13742;49.306;8.636;2023-03-23T00:39:57;14.61;60.07
25945;SHT31;13742;49.306;8.636;2023-03-23T00:40:57;14.61;60.01
25945;SHT31;13742;49.306;8.636;2023-03-23T00:42:00;14.61;60.23
25945;SHT31;13742;49.306;8.636;2023-03-23T00:42:56;14.62;60.03
25945;SHT31;13742;49.306;8.636;2023-03-23T00:43:57;14.61;60.00
25945;SHT31;13742;49.306;8.636;2023-03-23T00:45:00;14.59;60.36
25945;SHT31;13742;49.306;8.636;2023-03-23T00:45:57;14.59;60.11
25945;SHT31;13742;49.306;8.636;2023-03-23T00:47:01;14.58;59.96
25945;SHT31;13742;49.306;8.636;2023-03-23T00:47:56;14.55;59.90
25945;SHT31;13742;49.306;8.636;2023-03-23T00:48:56;14.55;60.24
25945;SHT31;13742;49.306;8.636;2023-03-23T00:49:56;14.58;60.12
25945;SHT31;13742;49.306;8.636;2023-03-23T00:50:56;14.55;60.21
25945;SHT31;13742;49.306;8.636;2023-03-23T00:51:57;14.54;60.23
25945;SHT31;13742;49.306;8.636;2023-03-23T00:52:57;14.51;60.38
25945;SHT31;13742;49.306;8.636;2023-03-23T00:53:56;14.52;60.52
25945;SHT31;13742;49.306;8.636;2023-03-23T00:54:56;14.52;60.62
25945;SHT31;13742;49.306;8.636;2023-03-23T00:55:56;14.54;60.55
25945;SHT31;13742;49.306;8.636;2023-03-23T00:56:56;14.50;60.58
25945;SHT31;13742;49.306;8.636;2023-03-23T00:57:56;14.52;60.37
25945;SHT31;13742;49.306;8.636;2023-03-23T00:58:56;14.54;60.45
25945;SHT31;13742;49.306;8.636;2023-03-23T00:59:56;14.51;60.08
25945;SHT31;13742;49.306;8.636;2023-03-23T01:00:56;14.52;60.29
25945;SHT31;13742;49.306;8.636;2023-03-23T01:01:56;14.52;60.24
25945;SHT31;13742;49.306;8.636;2023-03-23T01:02:56;14.52;60.30
25945;SHT31;13742;49.306;8.636;2023-03-23T01:04:01;14.51;60.05
25945;SHT31;13742;49.306;8.636;2023-03-23T01:04:56;14.50;60.21
25945;SHT31;13742;49.306;8.636;2023-03-23T01:05:56;14.50;59.98
25945;SHT31;13742;49.306;8.636;2023-03-23T01:06:57;14.50;60.06
25945;SHT31;13742;49.306;8.636;2023-03-23T01:07:56;14.50;60.07
25945;SHT31;13742;49.306;8.636;2023-03-23T01:08:59;14.48;60.29
25945;SHT31;13742;49.306;8.636;2023-03-23T01:09:57;14.48;60.13
25945;SHT31;13742;49.306;8.636;2023-03-23T01:11:05;14.47;60.26
25945;SHT31;13742;49.306;8.636;2023-03-23T01:11:56;14.48;60.49
25945;SHT31;13742;49.306;8.636;2023-03-23T01:12:56;14.45;60.44
25945;SHT31;13742;49.306;8.636;2023-03-23T01:13:56;14.47;60.35
25945;SHT31;13742;49.306;8.636;2023-03-23T01:14:56;14.45;60.28
25945;SHT31;13742;49.306;8.636;2023-03-23T01:15:56;14.45;60.43
25945;SHT31;13742;49.306;8.636;2023-03-23T01:16:56;14.45;60.41
25945;SHT31;13742;49.306;8.636;2023-03-23T01:17:56;14.44;60.78
25945;SHT31;13742;49.306;8.636;2023-03-23T01:18:56;14.42;60.42
25945;SHT31;13742;49.306;8.636;2023-03-23T01:19:56;14.42;60.62
25945;SHT31;13742;49.306;8.636;2023-03-23T01:20:56;14.42;60.67
25945;SHT31;13742;49.306;8.636;2023-03-23T01:21:56;14.42;60.63
25945;SHT31;13742;49.306;8.636;2023-03-23T01:23:00;14.38;60.55
25945;SHT31;13742;49.306;8.636;2023-03-23T01:23:56;14.38;60.97
25945;SHT31;13742;49.306;8.636;2023-03-23T01:24:56;14.37;60.97
25945;SHT31;13742;49.306;8.636;2023-03-23T01:26:03;14.37;60.86
25945;SHT31;13742;49.306;8.636;2023-03-23T01:26:56;14.37;61.08
25945;SHT31;13742;49.306;8.636;2023-03-23T01:27:57;14.37;60.91
25945;SHT31;13742;49.306;8.636;2023-03-23T01:28:56;14.37;61.49
25945;SHT31;13742;49.306;8.636;2023-03-23T01:29:56;14.34;61.61
25945;SHT31;13742;49.306;8.636;2023-03-23T01:31:10;14.32;61.23
25945;SHT31;13742;49.306;8.636;2023-03-23T01:31:56;14.32;61.84
25945;SHT31;13742;49.306;8.636;2023-03-23T01:32:56;14.31;62.27
25945;SHT31;13742;49.306;8.636;2023-03-23T01:33:56;14.28;61.96
25945;SHT31;13742;49.306;8.636;2023-03-23T01:34:56;14.30;62.41
25945;SHT31;13742;49.306;8.636;2023-03-23T01:35:56;14.27;62.25
25945;SHT31;13742;49.306;8.636;2023-03-23T01:36:56;14.28;62.23
25945;SHT31;13742;49.306;8.636;2023-03-23T01:37:56;14.24;61.88
25945;SHT31;13742;49.306;8.636;2023-03-23T01:39:03;14.23;61.63
25945;SHT31;13742;49.306;8.636;2023-03-23T01:39:56;14.20;61.53
25945;SHT31;13742;49.306;8.636;2023-03-23T01:40:56;14.19;61.54
25945;SHT31;13742;49.306;8.636;2023-03-23T01:41:57;14.19;62.06
25945;SHT31;13742;49.306;8.636;2023-03-23T01:42:56;14.14;61.89
25945;SHT31;13742;49.306;8.636;2023-03-23T01:44:07;14.20;62.81
25945;SHT31;13742;49.306;8.636;2023-03-23T01:45:56;14.10;63.75
25945;SHT31;13742;49.306;8.636;2023-03-23T01:46:56;13.99;64.10
25945;SHT31;13742;49.306;8.636;2023-03-23T01:48:02;13.93;64.18
25945;SHT31;13742;49.306;8.636;2023-03-23T01:48:58;13.94;64.11
25945;SHT31;13742;49.306;8.636;2023-03-23T01:49:56;13.97;63.76
25945;SHT31;13742;49.306;8.636;2023-03-23T01:51:02;13.96;63.35
25945;SHT31;13742;49.306;8.636;2023-03-23T01:52:04;13.96;63.10
25945;SHT31;13742;49.306;8.636;2023-03-23T01:52:57;13.96;62.96
25945;SHT31;13742;49.306;8.636;2023-03-23T01:54:00;13.96;62.93
25945;SHT31;13742;49.306;8.636;2023-03-23T01:54:57;13.94;62.86
25945;SHT31;13742;49.306;8.636;2023-03-23T01:55:56;13.93;63.46
25945;SHT31;13742;49.306;8.636;2023-03-23T01:57:02;13.96;63.38
25945;SHT31;13742;49.306;8.636;2023-03-23T01:57:57;13.96;64.07
25945;SHT31;13742;49.306;8.636;2023-03-23T01:58:56;13.94;64.15
25945;SHT31;13742;49.306;8.636;2023-03-23T02:00:03;13.92;64.45
25945;SHT31;13742;49.306;8.636;2023-03-23T02:00:58;13.93;64.25
25945;SHT31;13742;49.306;8.636;2023-03-23T02:01:56;13.92;63.70
25945;SHT31;13742;49.306;8.636;2023-03-23T02:02:56;13.90;63.55
25945;SHT31;13742;49.306;8.636;2023-03-23T02:03:57;13.90;63.39
25945;SHT31;13742;49.306;8.636;2023-03-23T02:05:01;13.88;63.38
25945;SHT31;13742;49.306;8.636;2023-03-23T02:05:58;13.89;63.40
25945;SHT31;13742;49.306;8.636;2023-03-23T02:06:57;13.90;64.49
25945;SHT31;13742;49.306;8.636;2023-03-23T02:07:58;13.88;63.80
25945;SHT31;13742;49.306;8.636;2023-03-23T02:08:57;13.86;64.08
25945;SHT31;13742;49.306;8.636;2023-03-23T02:09:56;13.86;63.87
25945;SHT31;13742;49.306;8.636;2023-03-23T02:10:56;13.86;63.58
25945;SHT31;13742;49.306;8.636;2023-03-23T02:11:56;13.86;63.79
25945;SHT31;13742;49.306;8.636;2023-03-23T02:12:57;13.88;64.16
25945;SHT31;13742;49.306;8.636;2023-03-23T02:13:56;13.89;64.04
25945;SHT31;13742;49.306;8.636;2023-03-23T02:14:56;13.88;63.82
25945;SHT31;13742;49.306;8.636;2023-03-23T02:16:03;13.85;63.58
25945;SHT31;13742;49.306;8.636;2023-03-23T02:18:04;13.83;63.57
25945;SHT31;13742;49.306;8.636;2023-03-23T02:20:34;13.83;63.73
25945;SHT31;13742;49.306;8.636;2023-03-23T02:21:07;13.80;63.83
25945;SHT31;13742;49.306;8.636;2023-03-23T02:27:14;13.82;64.19
25945;SHT31;13742;49.306;8.636;2023-03-23T02:29:10;13.82;64.33
25945;SHT31;13742;49.306;8.636;2023-03-23T02:30:17;13.80;64.43
25945;SHT31;13742;49.306;8.636;2023-03-23T02:31:10;13.79;64.86
25945;SHT31;13742;49.306;8.636;2023-03-23T02:32:08;13.78;65.06
25945;SHT31;13742;49.306;8.636;2023-03-23T02:34:02;13.78;64.41
25945;SHT31;13742;49.306;8.636;2023-03-23T02:34:59;13.78;64.30
25945;SHT31;13742;49.306;8.636;2023-03-23T02:36:03;13.78;64.56
25945;SHT31;13742;49.306;8.636;2023-03-23T02:37:02;13.78;65.14
25945;SHT31;13742;49.306;8.636;2023-03-23T02:38:02;13.73;65.52
25945;SHT31;13742;49.306;8.636;2023-03-23T02:39:23;13.69;65.80
25945;SHT31;13742;49.306;8.636;2023-03-23T02:40:13;13.69;65.31
25945;SHT31;13742;49.306;8.636;2023-03-23T02:40:59;13.70;65.69
25945;SHT31;13742;49.306;8.636;2023-03-23T02:41:59;13.70;66.03
25945;SHT31;13742;49.306;8.636;2023-03-23T02:42:57;13.68;66.21
25945;SHT31;13742;49.306;8.636;2023-03-23T02:43:57;13.66;65.56
25945;SHT31;13742;49.306;8.636;2023-03-23T02:44:58;13.66;65.51
25945;SHT31;13742;49.306;8.636;2023-03-23T02:45:57;13.66;65.11
25945;SHT31;13742;49.306;8.636;2023-03-23T02:46:57;13.66;64.96
25945;SHT31;13742;49.306;8.636;2023-03-23T02:47:56;13.66;64.92
25945;SHT31;13742;49.306;8.636;2023-03-23T02:48:58;13.63;65.90
25945;SHT31;13742;49.306;8.636;2023-03-23T02:49:57;13.63;65.35
25945;SHT31;13742;49.306;8.636;2023-03-23T02:50:56;13.62;65.48
25945;SHT31;13742;49.306;8.636;2023-03-23T02:51:58;13.65;65.78
25945;SHT31;13742;49.306;8.636;2023-03-23T02:52:56;13.63;65.37
25945;SHT31;13742;49.306;8.636;2023-03-23T02:53:57;13.62;65.88
25945;SHT31;13742;49.306;8.636;2023-03-23T02:54:57;13.61;66.47
25945;SHT31;13742;49.306;8.636;2023-03-23T02:55:57;13.59;66.43
25945;SHT31;13742;49.306;8.636;2023-03-23T02:56:57;13.61;66.51
25945;SHT31;13742;49.306;8.636;2023-03-23T02:57:56;13.61;66.23
25945;SHT31;13742;49.306;8.636;2023-03-23T02:58:56;13.58;65.78
25945;SHT31;13742;49.306;8.636;2023-03-23T02:59:56;13.58;65.50
25945;SHT31;13742;49.306;8.636;2023-03-23T03:00:56;13.59;65.56
25945;SHT31;13742;49.306;8.636;2023-03-23T03:02:05;13.56;65.29
25945;SHT31;13742;49.306;8.636;2023-03-23T03:02:57;13.58;65.90
25945;SHT31;13742;49.306;8.636;2023-03-23T03:03:56;13.55;65.44
25945;SHT31;13742;49.306;8.636;2023-03-23T03:05:03;13.56;65.54
25945;SHT31;13742;49.306;8.636;2023-03-23T03:06:19;13.56;65.42
25945;SHT31;13742;49.306;8.636;2023-03-23T03:07:30;13.53;65.22
25945;SHT31;13742;49.306;8.636;2023-03-23T03:08:33;13.55;65.78
25945;SHT31;13742;49.306;8.636;2023-03-23T03:10:02;13.55;65.40
25945;SHT31;13742;49.306;8.636;2023-03-23T03:11:59;13.55;65.40
25945;SHT31;13742;49.306;8.636;2023-03-23T03:13:07;13.58;65.57
25945;SHT31;13742;49.306;8.636;2023-03-23T03:14:05;13.56;66.04
25945;SHT31;13742;49.306;8.636;2023-03-23T03:17:03;13.53;65.28
25945;SHT31;13742;49.306;8.636;2023-03-23T03:18:06;13.52;65.13
25945;SHT31;13742;49.306;8.636;2023-03-23T03:19:01;13.53;65.16
25945;SHT31;13742;49.306;8.636;2023-03-23T03:20:00;13.52;66.02
25945;SHT31;13742;49.306;8.636;2023-03-23T03:21:02;13.53;66.50
25945;SHT31;13742;49.306;8.636;2023-03-23T03:21:58;13.52;66.33
25945;SHT31;13742;49.306;8.636;2023-03-23T03:22:57;13.52;65.81
25945;SHT31;13742;49.306;8.636;2023-03-23T03:23:58;13.51;65.67
25945;SHT31;13742;49.306;8.636;2023-03-23T03:24:57;13.53;66.68
25945;SHT31;13742;49.306;8.636;2023-03-23T03:25:59;13.51;65.86
25945;SHT31;13742;49.306;8.636;2023-03-23T03:27:00;13.53;65.69
25945;SHT31;13742;49.306;8.636;2023-03-23T03:27:57;13.51;65.65
25945;SHT31;13742;49.306;8.636;2023-03-23T03:28:56;13.51;66.56
25945;SHT31;13742;49.306;8.636;2023-03-23T03:29:58;13.51;65.98
25945;SHT31;13742;49.306;8.636;2023-03-23T03:30:58;13.48;65.98
25945;SHT31;13742;49.306;8.636;2023-03-23T03:31:58;13.51;66.27
25945;SHT31;13742;49.306;8.636;2023-03-23T03:32:56;13.52;66.61
25945;SHT31;13742;49.306;8.636;2023-03-23T03:33:57;13.48;66.18
25945;SHT31;13742;49.306;8.636;2023-03-23T03:34:59;13.48;65.96
25945;SHT31;13742;49.306;8.636;2023-03-23T03:35:58;13.49;67.05
25945;SHT31;13742;49.306;8.636;2023-03-23T03:36:59;13.49;66.30
25945;SHT31;13742;49.306;8.636;2023-03-23T03:37:57;13.46;67.44
25945;SHT31;13742;49.306;8.636;2023-03-23T03:38:58;13.48;66.90
25945;SHT31;13742;49.306;8.636;2023-03-23T03:39:56;13.48;66.45
25945;SHT31;13742;49.306;8.636;2023-03-23T03:40:56;13.45;66.35
25945;SHT31;13742;49.306;8.636;2023-03-23T03:41:56;13.48;67.26
25945;SHT31;13742;49.306;8.636;2023-03-23T03:42:56;13.46;67.43
25945;SHT31;13742;49.306;8.636;2023-03-23T03:43:56;13.43;66.75
25945;SHT31;13742;49.306;8.636;2023-03-23T03:44:56;13.45;67.27
25945;SHT31;13742;49.306;8.636;2023-03-23T03:45:56;13.46;67.19
25945;SHT31;13742;49.306;8.636;2023-03-23T03:46:56;13.45;66.97
25945;SHT31;13742;49.306;8.636;2023-03-23T03:47:56;13.45;67.23
25945;SHT31;13742;49.306;8.636;2023-03-23T03:49:00;13.42;66.94
25945;SHT31;13742;49.306;8.636;2023-03-23T03:49:56;13.42;67.39
25945;SHT31;13742;49.306;8.636;2023-03-23T03:50:56;13.43;68.00
25945;SHT31;13742;49.306;8.636;2023-03-23T03:51:56;13.41;68.49
25945;SHT31;13742;49.306;8.636;2023-03-23T03:52:57;13.31;68.40
25945;SHT31;13742;49.306;8.636;2023-03-23T03:53:56;13.32;67.87
25945;SHT31;13742;49.306;8.636;2023-03-23T03:54:56;13.34;67.39
25945;SHT31;13742;49.306;8.636;2023-03-23T03:55:59;13.34;67.23
25945;SHT31;13742;49.306;8.636;2023-03-23T03:56:57;13.34;68.31
25945;SHT31;13742;49.306;8.636;2023-03-23T03:57:57;13.34;67.54
25945;SHT31;13742;49.306;8.636;2023-03-23T03:58:57;13.32;67.32
25945;SHT31;13742;49.306;8.636;2023-03-23T03:59:56;13.32;67.43
25945;SHT31;13742;49.306;8.636;2023-03-23T04:00:58;13.34;68.06
25945;SHT31;13742;49.306;8.636;2023-03-23T04:01:56;13.34;67.32
25945;SHT31;13742;49.306;8.636;2023-03-23T04:02:56;13.32;67.67
25945;SHT31;13742;49.306;8.636;2023-03-23T04:03:56;13.31;67.58
25945;SHT31;13742;49.306;8.636;2023-03-23T04:04:56;13.31;67.78
25945;SHT31;13742;49.306;8.636;2023-03-23T04:05:56;13.32;67.41
25945;SHT31;13742;49.306;8.636;2023-03-23T04:06:57;13.32;67.77
25945;SHT31;13742;49.306;8.636;2023-03-23T04:08:01;13.32;67.39
25945;SHT31;13742;49.306;8.636;2023-03-23T04:08:57;13.35;67.48
25945;SHT31;13742;49.306;8.636;2023-03-23T04:09:56;13.34;67.19
25945;SHT31;13742;49.306;8.636;2023-03-23T04:10:56;13.32;67.00
25945;SHT31;13742;49.306;8.636;2023-03-23T04:11:56;13.31;67.08
25945;SHT31;13742;49.306;8.636;2023-03-23T04:12:56;13.31;68.03
25945;SHT31;13742;49.306;8.636;2023-03-23T04:13:56;13.32;67.82
25945;SHT31;13742;49.306;8.636;2023-03-23T04:14:56;13.31;67.66
25945;SHT31;13742;49.306;8.636;2023-03-23T04:15:56;13.32;67.31
25945;SHT31;13742;49.306;8.636;2023-03-23T04:16:57;13.34;68.05
25945;SHT31;13742;49.306;8.636;2023-03-23T04:17:56;13.32;67.73
25945;SHT31;13742;49.306;8.636;2023-03-23T04:18:57;13.35;67.65
25945;SHT31;13742;49.306;8.636;2023-03-23T04:20:00;13.34;67.37
25945;SHT31;13742;49.306;8.636;2023-03-23T04:21:01;13.34;67.90
25945;SHT31;13742;49.306;8.636;2023-03-23T04:21:59;13.34;67.29
25945;SHT31;13742;49.306;8.636;2023-03-23T04:22:56;13.34;68.49
25945;SHT31;13742;49.306;8.636;2023-03-23T04:23:59;13.34;68.41
25945;SHT31;13742;49.306;8.636;2023-03-23T04:25:00;13.35;68.80
25945;SHT31;13742;49.306;8.636;2023-03-23T04:25:56;13.35;68.36
25945;SHT31;13742;49.306;8.636;2023-03-23T04:26:56;13.34;67.80
25945;SHT31;13742;49.306;8.636;2023-03-23T04:27:57;13.32;67.66
25945;SHT31;13742;49.306;8.636;2023-03-23T04:28:56;13.32;68.08
25945;SHT31;13742;49.306;8.636;2023-03-23T04:29:58;13.31;68.92
25945;SHT31;13742;49.306;8.636;2023-03-23T04:30:56;13.32;68.98
25945;SHT31;13742;49.306;8.636;2023-03-23T04:31:56;13.32;68.86
25945;SHT31;13742;49.306;8.636;2023-03-23T04:32:56;13.30;68.85
25945;SHT31;13742;49.306;8.636;2023-03-23T04:33:56;13.31;68.42
25945;SHT31;13742;49.306;8.636;2023-03-23T04:34:58;13.31;68.91
25945;SHT31;13742;49.306;8.636;2023-03-23T04:35:59;13.31;69.10
25945;SHT31;13742;49.306;8.636;2023-03-23T04:36:56;13.30;69.60
25945;SHT31;13742;49.306;8.636;2023-03-23T04:37:56;13.25;69.44
25945;SHT31;13742;49.306;8.636;2023-03-23T04:38:56;13.28;68.79
25945;SHT31;13742;49.306;8.636;2023-03-23T04:40:12;13.25;68.48
25945;SHT31;13742;49.306;8.636;2023-03-23T04:40:56;13.24;68.32
25945;SHT31;13742;49.306;8.636;2023-03-23T04:42:01;13.24;68.30
25945;SHT31;13742;49.306;8.636;2023-03-23T04:42:57;13.28;69.23
25945;SHT31;13742;49.306;8.636;2023-03-23T04:43:56;13.25;68.84
25945;SHT31;13742;49.306;8.636;2023-03-23T04:44:57;13.27;69.01
25945;SHT31;13742;49.306;8.636;2023-03-23T04:45:57;13.25;68.63
25945;SHT31;13742;49.306;8.636;2023-03-23T04:46:56;13.27;68.41
25945;SHT31;13742;49.306;8.636;2023-03-23T04:47:57;13.22;68.23
25945;SHT31;13742;49.306;8.636;2023-03-23T04:48:59;13.24;68.69
25945;SHT31;13742;49.306;8.636;2023-03-23T04:49:56;13.25;69.40
25945;SHT31;13742;49.306;8.636;2023-03-23T04:50:56;13.27;69.26
25945;SHT31;13742;49.306;8.636;2023-03-23T04:51:56;13.25;70.13
25945;SHT31;13742;49.306;8.636;2023-03-23T04:52:57;13.18;70.97
25945;SHT31;13742;49.306;8.636;2023-03-23T04:53:56;13.13;71.65
25945;SHT31;13742;49.306;8.636;2023-03-23T04:54:56;13.14;71.37
25945;SHT31;13742;49.306;8.636;2023-03-23T04:55:56;13.13;71.34
25945;SHT31;13742;49.306;8.636;2023-03-23T04:56:56;13.17;70.97
25945;SHT31;13742;49.306;8.636;2023-03-23T04:57:57;13.15;70.23
25945;SHT31;13742;49.306;8.636;2023-03-23T04:58:56;13.17;69.84
25945;SHT31;13742;49.306;8.636;2023-03-23T04:59:56;13.15;69.61
25945;SHT31;13742;49.306;8.636;2023-03-23T05:00:56;13.14;69.64
25945;SHT31;13742;49.306;8.636;2023-03-23T05:01:56;13.15;70.18
25945;SHT31;13742;49.306;8.636;2023-03-23T05:02:56;13.15;70.41
25945;SHT31;13742;49.306;8.636;2023-03-23T05:03:56;13.15;71.60
25945;SHT31;13742;49.306;8.636;2023-03-23T05:04:56;13.10;71.97
25945;SHT31;13742;49.306;8.636;2023-03-23T05:05:56;13.15;71.49
25945;SHT31;13742;49.306;8.636;2023-03-23T05:06:56;13.14;71.18
25945;SHT31;13742;49.306;8.636;2023-03-23T05:07:56;13.15;70.77
25945;SHT31;13742;49.306;8.636;2023-03-23T05:08:56;13.15;71.19
25945;SHT31;13742;49.306;8.636;2023-03-23T05:09:56;13.15;70.90
25945;SHT31;13742;49.306;8.636;2023-03-23T05:10:57;13.17;73.06
25945;SHT31;13742;49.306;8.636;2023-03-23T05:11:57;13.17;72.50
25945;SHT31;13742;49.306;8.636;2023-03-23T05:12:56;13.18;72.83
25945;SHT31;13742;49.306;8.636;2023-03-23T05:13:56;13.15;72.59
25945;SHT31;13742;49.306;8.636;2023-03-23T05:14:56;13.15;72.52
25945;SHT31;13742;49.306;8.636;2023-03-23T05:15:56;13.15;72.31
25945;SHT31;13742;49.306;8.636;2023-03-23T05:16:56;13.15;72.97
25945;SHT31;13742;49.306;8.636;2023-03-23T05:17:56;13.14;72.60
25945;SHT31;13742;49.306;8.636;2023-03-23T05:18:57;13.15;72.36
25945;SHT31;13742;49.306;8.636;2023-03-23T05:19:56;13.15;72.72
25945;SHT31;13742;49.306;8.636;2023-03-23T05:20:59;13.17;73.38
25945;SHT31;13742;49.306;8.636;2023-03-23T05:21:59;13.20;72.52
25945;SHT31;13742;49.306;8.636;2023-03-23T05:22:57;13.18;72.66
25945;SHT31;13742;49.306;8.636;2023-03-23T05:23:56;13.18;72.26
25945;SHT31;13742;49.306;8.636;2023-03-23T05:24:56;13.20;72.74
25945;SHT31;13742;49.306;8.636;2023-03-23T05:25:57;13.20;72.65
25945;SHT31;13742;49.306;8.636;2023-03-23T05:26:56;13.22;73.00
25945;SHT31;13742;49.306;8.636;2023-03-23T05:27:56;13.24;72.54
25945;SHT31;13742;49.306;8.636;2023-03-23T05:28:56;13.24;72.60
25945;SHT31;13742;49.306;8.636;2023-03-23T05:29:58;13.25;73.00
25945;SHT31;13742;49.306;8.636;2023-03-23T05:30:56;13.25;72.61
25945;SHT31;13742;49.306;8.636;2023-03-23T05:31:59;13.28;72.23
25945;SHT31;13742;49.306;8.636;2023-03-23T05:32:56;13.32;72.59
25945;SHT31;13742;49.306;8.636;2023-03-23T05:33:56;13.32;71.91
25945;SHT31;13742;49.306;8.636;2023-03-23T05:35:00;13.37;71.20
25945;SHT31;13742;49.306;8.636;2023-03-23T05:35:56;13.39;70.80
25945;SHT31;13742;49.306;8.636;2023-03-23T05:36:58;13.39;70.91
25945;SHT31;13742;49.306;8.636;2023-03-23T05:37:57;13.45;70.42
25945;SHT31;13742;49.306;8.636;2023-03-23T05:39:00;13.45;70.35
25945;SHT31;13742;49.306;8.636;2023-03-23T05:39:56;13.48;70.26
25945;SHT31;13742;49.306;8.636;2023-03-23T05:40:59;13.51;70.38
25945;SHT31;13742;49.306;8.636;2023-03-23T05:41:56;13.53;70.55
25945;SHT31;13742;49.306;8.636;2023-03-23T05:42:58;13.53;69.86
25945;SHT31;13742;49.306;8.636;2023-03-23T05:43:56;13.55;69.57
25945;SHT31;13742;49.306;8.636;2023-03-23T05:44:56;13.62;68.48
25945;SHT31;13742;49.306;8.636;2023-03-23T05:45:56;13.62;68.76
25945;SHT31;13742;49.306;8.636;2023-03-23T05:46:56;13.65;68.76
25945;SHT31;13742;49.306;8.636;2023-03-23T05:47:56;13.66;68.44
25945;SHT31;13742;49.306;8.636;2023-03-23T05:48:56;13.69;68.88
25945;SHT31;13742;49.306;8.636;2023-03-23T05:49:56;13.65;69.07
25945;SHT31;13742;49.306;8.636;2023-03-23T05:50:56;13.65;69.05
25945;SHT31;13742;49.306;8.636;2023-03-23T05:51:56;13.66;68.73
25945;SHT31;13742;49.306;8.636;2023-03-23T05:52:56;13.68;68.87
25945;SHT31;13742;49.306;8.636;2023-03-23T05:53:56;13.68;69.18
25945;SHT31;13742;49.306;8.636;2023-03-23T05:54:56;13.68;69.36
25945;SHT31;13742;49.306;8.636;2023-03-23T05:56:00;13.66;69.55
25945;SHT31;13742;49.306;8.636;2023-03-23T05:56:56;13.68;69.23
25945;SHT31;13742;49.306;8.636;2023-03-23T05:57:56;13.66;69.34
25945;SHT31;13742;49.306;8.636;2023-03-23T05:58:56;13.66;69.22
25945;SHT31;13742;49.306;8.636;2023-03-23T05:59:57;13.70;69.33
25945;SHT31;13742;49.306;8.636;2023-03-23T06:00:56;13.68;69.08
25945;SHT31;13742;49.306;8.636;2023-03-23T06:01:57;13.69;69.03
25945;SHT31;13742;49.306;8.636;2023-03-23T06:02:56;13.68;69.01
25945;SHT31;13742;49.306;8.636;2023-03-23T06:03:58;13.69;68.83
25945;SHT31;13742;49.306;8.636;2023-03-23T06:04:57;13.69;68.74
25945;SHT31;13742;49.306;8.636;2023-03-23T06:05:56;13.68;69.05
25945;SHT31;13742;49.306;8.636;2023-03-23T06:06:56;13.68;69.29
25945;SHT31;13742;49.306;8.636;2023-03-23T06:07:56;13.70;68.39
25945;SHT31;13742;49.306;8.636;2023-03-23T06:08:57;13.70;68.53
25945;SHT31;13742;49.306;8.636;2023-03-23T06:09:56;13.70;68.59
25945;SHT31;13742;49.306;8.636;2023-03-23T06:10:56;13.69;68.75
25945;SHT31;13742;49.306;8.636;2023-03-23T06:11:56;13.72;68.55
25945;SHT31;13742;49.306;8.636;2023-03-23T06:12:56;13.69;68.79
25945;SHT31;13742;49.306;8.636;2023-03-23T06:13:56;13.73;68.59
25945;SHT31;13742;49.306;8.636;2023-03-23T06:14:56;13.72;68.55
25945;SHT31;13742;49.306;8.636;2023-03-23T06:15:58;13.72;68.54
25945;SHT31;13742;49.306;8.636;2023-03-23T06:16:56;13.75;68.35
25945;SHT31;13742;49.306;8.636;2023-03-23T06:18:00;13.75;68.39
25945;SHT31;13742;49.306;8.636;2023-03-23T06:18:56;13.73;68.39
25945;SHT31;13742;49.306;8.636;2023-03-23T06:19:56;13.75;68.51
25945;SHT31;13742;49.306;8.636;2023-03-23T06:20:56;13.75;68.54
25945;SHT31;13742;49.306;8.636;2023-03-23T06:21:56;13.75;68.66
25945;SHT31;13742;49.306;8.636;2023-03-23T06:22:56;13.73;68.80
25945;SHT31;13742;49.306;8.636;2023-03-23T06:23:56;13.75;68.88
25945;SHT31;13742;49.306;8.636;2023-03-23T06:24:57;13.76;68.62
25945;SHT31;13742;49.306;8.636;2023-03-23T06:25:59;13.76;68.72
25945;SHT31;13742;49.306;8.636;2023-03-23T06:26:56;13.75;68.61
25945;SHT31;13742;49.306;8.636;2023-03-23T06:27:56;13.75;68.97
25945;SHT31;13742;49.306;8.636;2023-03-23T06:28:56;13.75;68.75
25945;SHT31;13742;49.306;8.636;2023-03-23T06:29:56;13.76;68.67
25945;SHT31;13742;49.306;8.636;2023-03-23T06:30:59;13.78;68.70
25945;SHT31;13742;49.306;8.636;2023-03-23T06:32:00;13.80;68.68
25945;SHT31;13742;49.306;8.636;2023-03-23T06:32:57;13.80;68.12